sensor_id;sensor_type;location;lat;lon;timestamp;pressure;altitude;pressure_sealevel;temperature;humidity
69247;BME280;56358;56.328;43.992;2022-12-05T00:00:28;103863.78;;;-15.12;68.78
69247;BME280;56358;56.328;43.992;2022-12-05T00:02:28;103973.56;;;-14.50;68.98
69247;BME280;56358;56.328;43.992;2022-12-05T00:04:29;103975.91;;;-14.53;68.76
69247;BME280;56358;56.328;43.992;2022-12-05T00:06:30;103949.81;;;-14.68;69.11
69247;BME280;56358;56.328;43.992;2022-12-05T00:08:32;103947.81;;;-14.60;69.17
69247;BME280;56358;56.328;43.992;2022-12-05T00:10:35;103956.09;;;-14.64;69.18
69247;BME280;56358;56.328;43.992;2022-12-05T00:12:36;103968.59;;;-14.58;69.60
69247;BME280;56358;56.328;43.992;2022-12-05T00:14:37;103966.78;;;-14.59;68.87
69247;BME280;56358;56.328;43.992;2022-12-05T00:16:39;103964.47;;;-14.67;69.36
69247;BME280;56358;56.328;43.992;2022-12-05T00:18:40;103962.72;;;-14.78;69.51
69247;BME280;56358;56.328;43.992;2022-12-05T00:20:44;103971.97;;;-14.70;70.11
69247;BME280;56358;56.328;43.992;2022-12-05T00:22:45;103888.38;;;-15.16;69.62
69247;BME280;56358;56.328;43.992;2022-12-05T00:24:46;103919.88;;;-14.98;69.51
69247;BME280;56358;56.328;43.992;2022-12-05T00:26:46;103974.94;;;-14.65;69.12
69247;BME280;56358;56.328;43.992;2022-12-05T00:28:48;103980.09;;;-14.75;69.14
69247;BME280;56358;56.328;43.992;2022-12-05T00:30:48;103936.09;;;-14.89;69.08
69247;BME280;56358;56.328;43.992;2022-12-05T00:32:49;103968.41;;;-14.82;69.02
69247;BME280;56358;56.328;43.992;2022-12-05T00:34:50;103885.94;;;-15.25;69.03
69247;BME280;56358;56.328;43.992;2022-12-05T00:36:53;103962.84;;;-14.87;68.88
69247;BME280;56358;56.328;43.992;2022-12-05T00:38:54;103854.81;;;-15.48;69.09
69247;BME280;56358;56.328;43.992;2022-12-05T00:40:55;103969.44;;;-14.90;68.86
69247;BME280;56358;56.328;43.992;2022-12-05T00:42:56;103975.47;;;-14.90;68.75
69247;BME280;56358;56.328;43.992;2022-12-05T00:44:56;103952.72;;;-15.06;68.86
69247;BME280;56358;56.328;43.992;2022-12-05T00:46:57;103970.72;;;-14.95;68.92
69247;BME280;56358;56.328;43.992;2022-12-05T00:48:59;103974.72;;;-14.99;68.67
69247;BME280;56358;56.328;43.992;2022-12-05T00:51:13;103971.91;;;-15.02;68.74
69247;BME280;56358;56.328;43.992;2022-12-05T00:53:14;103971.25;;;-15.10;69.49
69247;BME280;56358;56.328;43.992;2022-12-05T00:55:15;103886.34;;;-15.61;69.04
69247;BME280;56358;56.328;43.992;2022-12-05T00:57:15;103951.69;;;-15.28;69.41
69247;BME280;56358;56.328;43.992;2022-12-05T00:59:18;103978.31;;;-15.18;69.92
69247;BME280;56358;56.328;43.992;2022-12-05T01:01:25;103955.31;;;-15.26;69.80
69247;BME280;56358;56.328;43.992;2022-12-05T01:03:25;103869.22;;;-15.71;69.75
69247;BME280;56358;56.328;43.992;2022-12-05T01:05:26;103889.81;;;-15.61;69.37
69247;BME280;56358;56.328;43.992;2022-12-05T01:07:26;103952.59;;;-15.28;69.25
69247;BME280;56358;56.328;43.992;2022-12-05T01:09:27;103978.97;;;-15.20;69.59
69247;BME280;56358;56.328;43.992;2022-12-05T01:11:28;103957.13;;;-15.25;69.75
69247;BME280;56358;56.328;43.992;2022-12-05T01:13:29;103966.09;;;-15.20;69.65
69247;BME280;56358;56.328;43.992;2022-12-05T01:15:30;103966.09;;;-15.20;69.81
69247;BME280;56358;56.328;43.992;2022-12-05T01:17:30;103959.28;;;-15.20;69.50
69247;BME280;56358;56.328;43.992;2022-12-05T01:19:31;103991.59;;;-15.23;69.60
69247;BME280;56358;56.328;43.992;2022-12-05T01:21:32;103951.16;;;-15.24;69.75
69247;BME280;56358;56.328;43.992;2022-12-05T01:23:33;103870.03;;;-15.72;69.70
69247;BME280;56358;56.328;43.992;2022-12-05T01:25:34;103957.13;;;-15.25;69.76
69247;BME280;56358;56.328;43.992;2022-12-05T01:27:34;103931.25;;;-15.37;69.38
69247;BME280;56358;56.328;43.992;2022-12-05T01:29:35;103944.88;;;-15.28;69.37
69247;BME280;56358;56.328;43.992;2022-12-05T01:31:36;103842.00;;;-15.90;69.03
69247;BME280;56358;56.328;43.992;2022-12-05T01:33:36;103928.53;;;-15.49;69.67
69247;BME280;56358;56.328;43.992;2022-12-05T01:35:38;103969.19;;;-15.24;69.51
69247;BME280;56358;56.328;43.992;2022-12-05T01:37:39;103964.41;;;-15.40;69.34
69247;BME280;56358;56.328;43.992;2022-12-05T01:39:40;103866.28;;;-15.86;69.26
69247;BME280;56358;56.328;43.992;2022-12-05T01:41:43;103972.91;;;-15.31;69.11
69247;BME280;56358;56.328;43.992;2022-12-05T01:46:10;103950.66;;;-15.41;69.55
69247;BME280;56358;56.328;43.992;2022-12-05T01:48:17;103944.22;;;-15.46;69.49
69247;BME280;56358;56.328;43.992;2022-12-05T01:50:19;103957.63;;;-15.40;69.41
69247;BME280;56358;56.328;43.992;2022-12-05T01:52:23;103961.59;;;-15.43;69.26
69247;BME280;56358;56.328;43.992;2022-12-05T01:54:25;103959.28;;;-15.51;69.17
69247;BME280;56358;56.328;43.992;2022-12-05T01:56:26;103962.75;;;-15.50;68.67
69247;BME280;56358;56.328;43.992;2022-12-05T01:58:30;103915.91;;;-15.77;69.19
69247;BME280;56358;56.328;43.992;2022-12-05T02:00:33;103945.38;;;-15.53;69.07
69247;BME280;56358;56.328;43.992;2022-12-05T02:02:34;103950.78;;;-15.60;69.23
69247;BME280;56358;56.328;43.992;2022-12-05T02:04:37;103869.50;;;-16.09;69.32
69247;BME280;56358;56.328;43.992;2022-12-05T02:06:41;103942.16;;;-15.71;68.97
69247;BME280;56358;56.328;43.992;2022-12-05T02:08:42;103938.56;;;-15.62;69.03
69247;BME280;56358;56.328;43.992;2022-12-05T02:10:53;103938.28;;;-15.76;69.50
69247;BME280;56358;56.328;43.992;2022-12-05T02:12:58;103928.41;;;-15.81;69.39
69247;BME280;56358;56.328;43.992;2022-12-05T02:33:00;103913.22;;;-15.99;69.37
69247;BME280;56358;56.328;43.992;2022-12-05T02:42:48;103864.81;;;-16.24;70.48
69247;BME280;56358;56.328;43.992;2022-12-05T02:44:58;103911.91;;;-15.94;70.14
69247;BME280;56358;56.328;43.992;2022-12-05T02:46:59;103822.13;;;-16.42;70.26
69247;BME280;56358;56.328;43.992;2022-12-05T02:49:07;103903.06;;;-15.97;69.89
69247;BME280;56358;56.328;43.992;2022-12-05T02:51:12;103863.56;;;-16.19;69.92
69247;BME280;56358;56.328;43.992;2022-12-05T02:53:15;103905.00;;;-15.95;69.92
69247;BME280;56358;56.328;43.992;2022-12-05T02:55:17;103803.22;;;-16.53;69.57
69247;BME280;56358;56.328;43.992;2022-12-05T02:57:20;103868.06;;;-16.16;69.94
69247;BME280;56358;56.328;43.992;2022-12-05T02:59:21;103890.56;;;-16.03;69.63
69247;BME280;56358;56.328;43.992;2022-12-05T03:01:27;103893.91;;;-15.94;69.63
69247;BME280;56358;56.328;43.992;2022-12-05T03:03:29;103881.28;;;-16.11;69.87
69247;BME280;56358;56.328;43.992;2022-12-05T03:05:38;103873.72;;;-16.10;69.67
69247;BME280;56358;56.328;43.992;2022-12-05T03:07:43;103877.31;;;-16.08;69.36
69247;BME280;56358;56.328;43.992;2022-12-05T03:09:55;103893.00;;;-16.05;69.19
69247;BME280;56358;56.328;43.992;2022-12-05T03:12:11;103778.16;;;-16.66;69.54
69247;BME280;56358;56.328;43.992;2022-12-05T03:14:24;103883.50;;;-16.06;69.65
69247;BME280;56358;56.328;43.992;2022-12-05T03:16:33;103879.91;;;-16.08;69.72
69247;BME280;56358;56.328;43.992;2022-12-05T03:18:46;103835.00;;;-16.32;69.57
69247;BME280;56358;56.328;43.992;2022-12-05T03:20:55;103855.94;;;-16.27;69.94
69247;BME280;56358;56.328;43.992;2022-12-05T03:23:09;103857.75;;;-16.26;70.06
69247;BME280;56358;56.328;43.992;2022-12-05T03:25:12;103862.78;;;-16.17;70.18
69247;BME280;56358;56.328;43.992;2022-12-05T03:27:27;103876.03;;;-16.13;70.23
69247;BME280;56358;56.328;43.992;2022-12-05T03:29:38;103788.31;;;-16.57;70.01
69247;BME280;56358;56.328;43.992;2022-12-05T03:33:55;103880.91;;;-16.16;70.04
69247;BME280;56358;56.328;43.992;2022-12-05T03:38:15;103862.53;;;-16.10;70.00
69247;BME280;56358;56.328;43.992;2022-12-05T03:43:09;103863.59;;;-16.08;70.11
69247;BME280;56358;56.328;43.992;2022-12-05T03:45:17;103851.72;;;-16.16;70.02
69247;BME280;56358;56.328;43.992;2022-12-05T03:47:46;103862.16;;;-16.15;70.10
69247;BME280;56358;56.328;43.992;2022-12-05T03:49:53;103828.09;;;-16.23;69.90
69247;BME280;56358;56.328;43.992;2022-12-05T03:52:02;103840.41;;;-16.29;69.75
69247;BME280;56358;56.328;43.992;2022-12-05T03:54:13;103858.97;;;-16.12;70.15
69247;BME280;56358;56.328;43.992;2022-12-05T03:56:27;103854.06;;;-16.09;69.42
69247;BME280;56358;56.328;43.992;2022-12-05T03:58:48;103775.72;;;-16.54;69.81
69247;BME280;56358;56.328;43.992;2022-12-05T04:00:51;103841.22;;;-16.09;69.88
69247;BME280;56358;56.328;43.992;2022-12-05T04:02:57;103839.66;;;-16.07;69.53
69247;BME280;56358;56.328;43.992;2022-12-05T04:05:33;103845.06;;;-16.14;70.33
69247;BME280;56358;56.328;43.992;2022-12-05T04:07:36;103809.94;;;-16.34;69.75
69247;BME280;56358;56.328;43.992;2022-12-05T04:09:46;103829.09;;;-16.21;69.75
69247;BME280;56358;56.328;43.992;2022-12-05T04:12:00;103833.59;;;-16.18;69.76
69247;BME280;56358;56.328;43.992;2022-12-05T04:14:10;103838.88;;;-16.16;69.61
69247;BME280;56358;56.328;43.992;2022-12-05T04:16:18;103832.47;;;-16.22;69.72
69247;BME280;56358;56.328;43.992;2022-12-05T04:18:45;103836.47;;;-16.15;69.38
69247;BME280;56358;56.328;43.992;2022-12-05T04:20:48;103822.44;;;-16.19;69.60
69247;BME280;56358;56.328;43.992;2022-12-05T04:23:08;103808.41;;;-16.22;69.15
69247;BME280;56358;56.328;43.992;2022-12-05T04:25:12;103753.13;;;-16.58;69.16
69247;BME280;56358;56.328;43.992;2022-12-05T04:27:55;103650.34;;;-17.20;68.90
69247;BME280;56358;56.328;43.992;2022-12-05T04:30:03;103833.72;;;-16.16;69.22
69247;BME280;56358;56.328;43.992;2022-12-05T04:32:08;103807.66;;;-16.21;68.66
69247;BME280;56358;56.328;43.992;2022-12-05T04:34:13;103828.47;;;-16.18;69.33
69247;BME280;56358;56.328;43.992;2022-12-05T04:36:21;103826.53;;;-16.21;69.51
69247;BME280;56358;56.328;43.992;2022-12-05T04:38:27;103722.41;;;-16.77;69.47
69247;BME280;56358;56.328;43.992;2022-12-05T04:40:37;103820.88;;;-16.16;69.76
69247;BME280;56358;56.328;43.992;2022-12-05T04:42:39;103815.63;;;-16.18;69.87
69247;BME280;56358;56.328;43.992;2022-12-05T04:45:04;103815.91;;;-16.15;69.96
69247;BME280;56358;56.328;43.992;2022-12-05T04:47:08;103815.50;;;-16.09;70.21
69247;BME280;56358;56.328;43.992;2022-12-05T04:49:10;103815.00;;;-16.05;70.55
69247;BME280;56358;56.328;43.992;2022-12-05T04:51:19;103740.06;;;-16.51;70.52
69247;BME280;56358;56.328;43.992;2022-12-05T04:53:24;103805.88;;;-16.02;70.24
69247;BME280;56358;56.328;43.992;2022-12-05T04:55:26;103790.69;;;-16.09;70.11
69247;BME280;56358;56.328;43.992;2022-12-05T04:58:09;103801.75;;;-15.99;70.32
69247;BME280;56358;56.328;43.992;2022-12-05T05:00:08;103815.66;;;-15.97;69.98
69247;BME280;56358;56.328;43.992;2022-12-05T05:02:12;103775.03;;;-16.12;69.27
69247;BME280;56358;56.328;43.992;2022-12-05T05:04:20;103648.09;;;-16.86;69.19
69247;BME280;56358;56.328;43.992;2022-12-05T05:06:21;103798.78;;;-15.94;69.65
69247;BME280;56358;56.328;43.992;2022-12-05T05:08:25;103792.88;;;-15.93;69.85
69247;BME280;56358;56.328;43.992;2022-12-05T05:10:40;103772.06;;;-15.96;69.64
69247;BME280;56358;56.328;43.992;2022-12-05T05:12:44;103756.25;;;-16.00;69.68
69247;BME280;56358;56.328;43.992;2022-12-05T05:14:45;103731.59;;;-16.09;69.57
69247;BME280;56358;56.328;43.992;2022-12-05T05:16:45;103771.28;;;-15.85;69.81
69247;BME280;56358;56.328;43.992;2022-12-05T05:18:48;103692.94;;;-16.31;69.65
69247;BME280;56358;56.328;43.992;2022-12-05T05:20:49;103768.59;;;-15.86;69.92
69247;BME280;56358;56.328;43.992;2022-12-05T05:22:54;103734.16;;;-15.98;69.97
69247;BME280;56358;56.328;43.992;2022-12-05T05:24:55;103674.16;;;-16.30;70.19
69247;BME280;56358;56.328;43.992;2022-12-05T05:26:56;103754.97;;;-15.85;70.50
69247;BME280;56358;56.328;43.992;2022-12-05T05:28:57;103725.56;;;-15.99;70.09
69247;BME280;56358;56.328;43.992;2022-12-05T05:31:02;103705.38;;;-16.05;70.15
69247;BME280;56358;56.328;43.992;2022-12-05T05:33:02;103722.72;;;-15.92;69.89
69247;BME280;56358;56.328;43.992;2022-12-05T05:35:03;103709.88;;;-16.23;69.81
69247;BME280;56358;56.328;43.992;2022-12-05T05:37:04;103727.84;;;-15.92;69.69
69247;BME280;56358;56.328;43.992;2022-12-05T05:39:05;103694.59;;;-16.31;69.33
69247;BME280;56358;56.328;43.992;2022-12-05T05:41:14;103721.31;;;-15.98;69.53
69247;BME280;56358;56.328;43.992;2022-12-05T05:43:15;103740.06;;;-15.89;69.69
69247;BME280;56358;56.328;43.992;2022-12-05T05:45:16;103732.59;;;-15.96;69.64
69247;BME280;56358;56.328;43.992;2022-12-05T05:47:17;103635.91;;;-16.58;69.64
69247;BME280;56358;56.328;43.992;2022-12-05T05:49:18;103745.72;;;-15.93;69.88
69247;BME280;56358;56.328;43.992;2022-12-05T05:51:19;103733.63;;;-15.94;70.27
69247;BME280;56358;56.328;43.992;2022-12-05T05:53:20;103705.88;;;-16.09;70.29
69247;BME280;56358;56.328;43.992;2022-12-05T05:55:21;103620.13;;;-16.52;69.87
69247;BME280;56358;56.328;43.992;2022-12-05T05:57:21;103739.78;;;-15.82;70.10
69247;BME280;56358;56.328;43.992;2022-12-05T05:59:22;103769.88;;;-15.81;70.30
69247;BME280;56358;56.328;43.992;2022-12-05T06:01:23;103752.66;;;-15.82;70.31
69247;BME280;56358;56.328;43.992;2022-12-05T06:03:24;103663.13;;;-16.29;70.12
69247;BME280;56358;56.328;43.992;2022-12-05T06:05:24;103658.75;;;-16.30;69.83
69247;BME280;56358;56.328;43.992;2022-12-05T06:07:25;103747.78;;;-15.89;69.81
69247;BME280;56358;56.328;43.992;2022-12-05T06:09:26;103624.50;;;-16.51;71.28
69247;BME280;56358;56.328;43.992;2022-12-05T06:11:27;103755.31;;;-15.70;71.96
69247;BME280;56358;56.328;43.992;2022-12-05T06:13:28;103701.75;;;-15.86;70.07
69247;BME280;56358;56.328;43.992;2022-12-05T06:15:29;103736.25;;;-15.62;69.62
69247;BME280;56358;56.328;43.992;2022-12-05T06:17:31;103728.81;;;-15.59;69.52
69247;BME280;56358;56.328;43.992;2022-12-05T06:19:32;103737.53;;;-15.57;69.57
69247;BME280;56358;56.328;43.992;2022-12-05T06:21:32;103734.31;;;-15.54;69.56
69247;BME280;56358;56.328;43.992;2022-12-05T06:23:35;103729.41;;;-15.51;69.67
69247;BME280;56358;56.328;43.992;2022-12-05T06:25:36;103726.34;;;-15.57;69.61
69247;BME280;56358;56.328;43.992;2022-12-05T06:27:37;103745.47;;;-15.54;69.62
69247;BME280;56358;56.328;43.992;2022-12-05T06:29:37;103698.47;;;-15.73;69.48
69247;BME280;56358;56.328;43.992;2022-12-05T06:31:38;103716.06;;;-15.57;69.43
69247;BME280;56358;56.328;43.992;2022-12-05T06:33:41;103629.44;;;-16.11;69.55
69247;BME280;56358;56.328;43.992;2022-12-05T06:35:41;103737.75;;;-15.54;69.75
69247;BME280;56358;56.328;43.992;2022-12-05T06:37:45;103710.81;;;-15.59;69.55
69247;BME280;56358;56.328;43.992;2022-12-05T06:39:46;103605.69;;;-16.19;69.56
69247;BME280;56358;56.328;43.992;2022-12-05T06:41:46;103720.16;;;-15.49;69.71
69247;BME280;56358;56.328;43.992;2022-12-05T06:43:47;103723.88;;;-15.45;69.69
69247;BME280;56358;56.328;43.992;2022-12-05T06:45:48;103719.63;;;-15.45;69.73
69247;BME280;56358;56.328;43.992;2022-12-05T06:47:50;103726.69;;;-15.42;69.67
69247;BME280;56358;56.328;43.992;2022-12-05T06:49:50;103718.44;;;-15.38;70.10
69247;BME280;56358;56.328;43.992;2022-12-05T06:51:52;103722.69;;;-15.39;70.13
69247;BME280;56358;56.328;43.992;2022-12-05T06:53:54;103703.28;;;-15.45;69.69
69247;BME280;56358;56.328;43.992;2022-12-05T06:56:04;103725.88;;;-15.31;70.00
69247;BME280;56358;56.328;43.992;2022-12-05T06:58:06;103703.44;;;-15.54;69.69
69247;BME280;56358;56.328;43.992;2022-12-05T07:00:08;103730.25;;;-15.30;70.28
69247;BME280;56358;56.328;43.992;2022-12-05T07:02:27;103631.44;;;-15.87;69.71
69247;BME280;56358;56.328;43.992;2022-12-05T07:04:28;103715.44;;;-15.22;69.26
69247;BME280;56358;56.328;43.992;2022-12-05T07:06:28;103718.50;;;-15.16;69.18
69247;BME280;56358;56.328;43.992;2022-12-05T07:08:29;103608.72;;;-15.70;68.98
69247;BME280;56358;56.328;43.992;2022-12-05T07:10:30;103723.22;;;-15.10;69.13
69247;BME280;56358;56.328;43.992;2022-12-05T07:12:31;103620.28;;;-15.65;69.38
69247;BME280;56358;56.328;43.992;2022-12-05T07:14:32;103705.88;;;-15.13;69.10
69247;BME280;56358;56.328;43.992;2022-12-05T07:16:33;103719.94;;;-14.97;68.92
69247;BME280;56358;56.328;43.992;2022-12-05T07:18:35;103713.25;;;-14.95;68.90
69247;BME280;56358;56.328;43.992;2022-12-05T07:20:35;103703.75;;;-15.07;69.54
69247;BME280;56358;56.328;43.992;2022-12-05T07:22:36;103698.31;;;-14.99;69.29
69247;BME280;56358;56.328;43.992;2022-12-05T07:24:37;103705.50;;;-14.95;69.61
69247;BME280;56358;56.328;43.992;2022-12-05T07:26:37;103685.34;;;-15.01;69.85
69247;BME280;56358;56.328;43.992;2022-12-05T07:28:38;103698.41;;;-14.88;69.71
69247;BME280;56358;56.328;43.992;2022-12-05T07:30:39;103698.84;;;-14.81;69.33
69247;BME280;56358;56.328;43.992;2022-12-05T07:32:39;103677.31;;;-14.94;69.75
69247;BME280;56358;56.328;43.992;2022-12-05T07:34:40;103715.81;;;-14.73;69.74
69247;BME280;56358;56.328;43.992;2022-12-05T07:36:41;103607.56;;;-15.19;69.32
69247;BME280;56358;56.328;43.992;2022-12-05T07:38:42;103699.28;;;-14.65;69.50
69247;BME280;56358;56.328;43.992;2022-12-05T07:40:43;103708.56;;;-14.67;68.99
69247;BME280;56358;56.328;43.992;2022-12-05T07:42:47;103656.53;;;-14.85;69.66
69247;BME280;56358;56.328;43.992;2022-12-05T07:44:47;103700.47;;;-14.60;68.92
69247;BME280;56358;56.328;43.992;2022-12-05T07:46:48;103687.28;;;-14.64;69.25
69247;BME280;56358;56.328;43.992;2022-12-05T07:48:49;103582.09;;;-15.16;69.20
69247;BME280;56358;56.328;43.992;2022-12-05T07:50:50;103689.88;;;-14.53;69.60
69247;BME280;56358;56.328;43.992;2022-12-05T07:52:51;103646.84;;;-14.65;69.64
69247;BME280;56358;56.328;43.992;2022-12-05T07:54:52;103665.13;;;-14.51;69.00
69247;BME280;56358;56.328;43.992;2022-12-05T07:56:52;103572.34;;;-15.08;69.38
69247;BME280;56358;56.328;43.992;2022-12-05T07:58:53;103662.69;;;-14.49;69.07
69247;BME280;56358;56.328;43.992;2022-12-05T08:00:54;103668.16;;;-14.44;69.76
69247;BME280;56358;56.328;43.992;2022-12-05T08:02:55;103584.97;;;-14.89;69.46
69247;BME280;56358;56.328;43.992;2022-12-05T08:04:56;103669.41;;;-14.39;70.55
69247;BME280;56358;56.328;43.992;2022-12-05T08:06:56;103651.22;;;-14.53;70.45
69247;BME280;56358;56.328;43.992;2022-12-05T08:08:57;103667.53;;;-14.30;70.75
69247;BME280;56358;56.328;43.992;2022-12-05T08:11:09;103640.41;;;-14.37;70.05
69247;BME280;56358;56.328;43.992;2022-12-05T08:13:10;103662.97;;;-14.22;70.20
69247;BME280;56358;56.328;43.992;2022-12-05T08:15:10;103657.81;;;-14.10;70.30
69247;BME280;56358;56.328;43.992;2022-12-05T08:17:11;103652.22;;;-14.05;69.78
69247;BME280;56358;56.328;43.992;2022-12-05T08:19:13;103651.41;;;-14.04;69.44
69247;BME280;56358;56.328;43.992;2022-12-05T08:21:17;103640.56;;;-14.11;70.49
69247;BME280;56358;56.328;43.992;2022-12-05T08:23:18;103642.00;;;-14.15;69.78
69247;BME280;56358;56.328;43.992;2022-12-05T08:25:19;103421.44;;;-15.30;69.51
69247;BME280;56358;56.328;43.992;2022-12-05T08:27:19;103648.41;;;-13.98;69.85
69247;BME280;56358;56.328;43.992;2022-12-05T08:29:20;103655.59;;;-13.94;69.71
69247;BME280;56358;56.328;43.992;2022-12-05T08:31:23;103639.88;;;-13.97;69.83
69247;BME280;56358;56.328;43.992;2022-12-05T08:33:24;103649.78;;;-13.91;69.94
69247;BME280;56358;56.328;43.992;2022-12-05T08:35:24;103652.00;;;-13.84;69.79
69247;BME280;56358;56.328;43.992;2022-12-05T08:37:25;103650.09;;;-13.87;69.59
69247;BME280;56358;56.328;43.992;2022-12-05T08:39:26;103643.50;;;-13.83;69.39
69247;BME280;56358;56.328;43.992;2022-12-05T08:41:27;103640.91;;;-13.83;69.46
69247;BME280;56358;56.328;43.992;2022-12-05T08:43:30;103622.50;;;-14.00;69.58
69247;BME280;56358;56.328;43.992;2022-12-05T08:45:30;103527.56;;;-14.53;69.73
69247;BME280;56358;56.328;43.992;2022-12-05T08:47:31;103628.78;;;-13.96;69.65
69247;BME280;56358;56.328;43.992;2022-12-05T08:49:32;103620.72;;;-14.01;69.34
69247;BME280;56358;56.328;43.992;2022-12-05T08:51:33;103640.78;;;-13.96;69.95
69247;BME280;56358;56.328;43.992;2022-12-05T08:53:35;103647.06;;;-13.81;69.94
69247;BME280;56358;56.328;43.992;2022-12-05T08:55:36;103640.44;;;-13.77;69.61
69247;BME280;56358;56.328;43.992;2022-12-05T08:57:37;103640.66;;;-13.74;69.83
69247;BME280;56358;56.328;43.992;2022-12-05T08:59:37;103644.47;;;-13.69;69.55
69247;BME280;56358;56.328;43.992;2022-12-05T09:01:38;103504.13;;;-14.44;69.93
69247;BME280;56358;56.328;43.992;2022-12-05T09:03:40;103637.31;;;-13.61;70.08
69247;BME280;56358;56.328;43.992;2022-12-05T09:05:41;103622.94;;;-13.58;69.92
69247;BME280;56358;56.328;43.992;2022-12-05T09:07:42;103625.63;;;-13.56;70.26
69247;BME280;56358;56.328;43.992;2022-12-05T09:09:43;103578.63;;;-13.76;70.54
69247;BME280;56358;56.328;43.992;2022-12-05T09:11:43;103593.97;;;-13.54;70.83
69247;BME280;56358;56.328;43.992;2022-12-05T09:13:51;103607.84;;;-13.40;70.70
69247;BME280;56358;56.328;43.992;2022-12-05T09:15:52;103606.47;;;-13.35;70.82
69247;BME280;56358;56.328;43.992;2022-12-05T09:17:52;103601.63;;;-13.30;70.42
69247;BME280;56358;56.328;43.992;2022-12-05T09:19:53;103605.41;;;-13.25;71.29
69247;BME280;56358;56.328;43.992;2022-12-05T09:21:54;103507.63;;;-13.71;70.74
69247;BME280;56358;56.328;43.992;2022-12-05T09:23:57;103600.91;;;-13.16;70.56
69247;BME280;56358;56.328;43.992;2022-12-05T09:25:58;103610.56;;;-13.13;70.77
69247;BME280;56358;56.328;43.992;2022-12-05T09:28:01;103601.34;;;-13.09;70.44
69247;BME280;56358;56.328;43.992;2022-12-05T09:30:03;103572.88;;;-13.23;70.52
69247;BME280;56358;56.328;43.992;2022-12-05T09:32:04;103585.84;;;-13.09;70.51
69247;BME280;56358;56.328;43.992;2022-12-05T09:34:05;103568.13;;;-13.17;69.90
69247;BME280;56358;56.328;43.992;2022-12-05T09:36:08;103586.81;;;-13.07;70.06
69247;BME280;56358;56.328;43.992;2022-12-05T09:38:10;103579.56;;;-13.13;70.19
69247;BME280;56358;56.328;43.992;2022-12-05T09:40:15;103567.34;;;-13.16;70.39
69247;BME280;56358;56.328;43.992;2022-12-05T09:42:33;103573.91;;;-13.07;70.64
69247;BME280;56358;56.328;43.992;2022-12-05T09:47:00;103566.69;;;-13.00;70.79
69247;BME280;56358;56.328;43.992;2022-12-05T09:49:04;103456.09;;;-13.57;70.97
69247;BME280;56358;56.328;43.992;2022-12-05T09:51:08;103540.47;;;-13.06;70.92
69247;BME280;56358;56.328;43.992;2022-12-05T09:53:27;103542.78;;;-12.97;71.04
69247;BME280;56358;56.328;43.992;2022-12-05T09:55:52;103553.25;;;-12.82;71.32
69247;BME280;56358;56.328;43.992;2022-12-05T09:57:59;103542.72;;;-12.85;71.54
69247;BME280;56358;56.328;43.992;2022-12-05T10:00:04;103549.13;;;-12.67;71.59
69247;BME280;56358;56.328;43.992;2022-12-05T10:02:23;103556.56;;;-12.58;71.24
69247;BME280;56358;56.328;43.992;2022-12-05T10:09:13;103536.50;;;-12.49;71.01
69247;BME280;56358;56.328;43.992;2022-12-05T10:14:18;103543.91;;;-12.41;70.80
69247;BME280;56358;56.328;43.992;2022-12-05T10:16:51;103514.25;;;-12.47;71.17
69247;BME280;56358;56.328;43.992;2022-12-05T10:19:26;103522.63;;;-12.37;70.83
69247;BME280;56358;56.328;43.992;2022-12-05T10:21:55;103515.34;;;-12.30;70.74
69247;BME280;56358;56.328;43.992;2022-12-05T10:24:03;103495.56;;;-12.42;70.78
69247;BME280;56358;56.328;43.992;2022-12-05T10:26:08;103536.44;;;-12.23;70.61
69247;BME280;56358;56.328;43.992;2022-12-05T10:28:31;103506.41;;;-12.35;70.62
69247;BME280;56358;56.328;43.992;2022-12-05T10:30:33;103524.88;;;-12.28;70.52
69247;BME280;56358;56.328;43.992;2022-12-05T10:32:59;103526.19;;;-12.22;70.62
69247;BME280;56358;56.328;43.992;2022-12-05T10:35:23;103511.59;;;-12.35;69.88
69247;BME280;56358;56.328;43.992;2022-12-05T10:37:24;103520.50;;;-12.30;69.89
69247;BME280;56358;56.328;43.992;2022-12-05T10:39:26;103520.91;;;-12.37;70.09
69247;BME280;56358;56.328;43.992;2022-12-05T10:41:27;103482.44;;;-12.59;69.58
69247;BME280;56358;56.328;43.992;2022-12-05T10:43:31;103506.59;;;-12.45;70.37
69247;BME280;56358;56.328;43.992;2022-12-05T10:45:40;103505.59;;;-12.47;70.49
69247;BME280;56358;56.328;43.992;2022-12-05T10:47:41;103508.88;;;-12.36;70.13
69247;BME280;56358;56.328;43.992;2022-12-05T10:49:42;103495.38;;;-12.45;70.19
69247;BME280;56358;56.328;43.992;2022-12-05T10:51:43;103486.31;;;-12.52;70.22
69247;BME280;56358;56.328;43.992;2022-12-05T10:53:47;103494.56;;;-12.44;70.28
69247;BME280;56358;56.328;43.992;2022-12-05T10:55:49;103502.31;;;-12.44;70.65
69247;BME280;56358;56.328;43.992;2022-12-05T10:58:14;103511.75;;;-12.45;70.29
69247;BME280;56358;56.328;43.992;2022-12-05T11:00:20;103504.50;;;-12.51;70.46
69247;BME280;56358;56.328;43.992;2022-12-05T11:02:29;103385.59;;;-13.18;70.67
69247;BME280;56358;56.328;43.992;2022-12-05T11:04:41;103501.69;;;-12.54;71.02
69247;BME280;56358;56.328;43.992;2022-12-05T11:07:22;103505.78;;;-12.57;71.26
69247;BME280;56358;56.328;43.992;2022-12-05T11:09:28;103500.63;;;-12.57;71.48
69247;BME280;56358;56.328;43.992;2022-12-05T11:11:32;103491.66;;;-12.62;71.15
69247;BME280;56358;56.328;43.992;2022-12-05T11:13:33;103491.28;;;-12.55;71.51
69247;BME280;56358;56.328;43.992;2022-12-05T11:15:43;103493.25;;;-12.51;71.36
69247;BME280;56358;56.328;43.992;2022-12-05T11:17:45;103483.75;;;-12.52;71.22
69247;BME280;56358;56.328;43.992;2022-12-05T11:19:46;103460.16;;;-12.70;71.24